Hassler — WTEK — position and weather

sailwx.info

Track history (hours):
 
Tides and Currents Weather Stations Pressure Air Temp Water Temp Dewpoint Dewpoint Depression Visibility Wind Speed Wind Dir Waves Ship Positions

Oceanographic research ship Hassler (USA)

Last reported at 2015-Jul-30 21:29 UTC. Time now 2015-Jul-31 05:05 UTC.
Position N 36°30' W 075°14'.

Length 37 m; draft 3.8 m.

Type: . MMSI: 369970091.

Date/timePositionNaut miles runAvg speedWind from/ knotsBaromVisibWave heightAir tempDewpointWater temp
2015-Jul-30 21:29N 36°30' W 075°14'2 0.1
2015-Jul-30 05:30N 36°28' W 075°13'2 0.6
2015-Jul-30 02:06N 36°26' W 075°13'52 2.3
2015-Jul-29 03:33N 37°14' W 074°49'1412.5
2015-Jul-29 02:27N 37°22' W 075°03'1211.6
2015-Jul-29 01:23N 37°28' W 075°17'0 0.4
2015-Jul-29 00:33N 37°28' W 075°17'1 1.4
2015-Jul-28 23:33N 37°29' W 075°16'10510.2
2015-Jul-28 13:13N 38°59' W 074°07'912.1
2015-Jul-28 12:28N 39°08' W 074°03'1511.9
2015-Jul-28 11:13N 39°21' W 073°55'811.9
2015-Jul-28 10:33N 39°29' W 073°51'1211.8
2015-Jul-28 09:33N 39°39' W 073°45'1211.8
2015-Jul-28 08:32N 39°47' W 073°33'1211.9
2015-Jul-28 07:33N 39°54' W 073°21'1211.7
2015-Jul-28 06:33N 40°02' W 073°09'1211.9
2015-Jul-28 05:33N 40°09' W 072°57'1211.6
2015-Jul-28 04:33N 40°16' W 072°45'1111.3
2015-Jul-28 03:33N 40°23' W 072°34'1211.7
2015-Jul-28 02:33N 40°31' W 072°22'1211.8
2015-Jul-28 01:33N 40°38' W 072°10'1211.7
2015-Jul-28 00:33N 40°45' W 071°57'1211.8
2015-Jul-27 23:33N 40°53' W 071°45'1211.7
2015-Jul-27 22:33N 40°59' W 071°32'1211.7
2015-Jul-27 21:33N 41°07' W 071°20'1211.7
2015-Jul-27 20:33N 41°14' W 071°08'1211.8
2015-Jul-27 19:33N 41°22' W 070°56'1211.8
2015-Jul-27 18:33N 41°28' W 070°43'4 3.8
2015-Jul-27 17:32N 41°32' W 070°40'0 0.0
2015-Jul-27 16:32N 41°32' W 070°40'0 0.0
2015-Jul-27 15:23N 41°32' W 070°40'0 0.0
2015-Jul-27 14:26N 41°32' W 070°40'0 0.0
2015-Jul-27 13:17N 41°32' W 070°40'0 0.0
2015-Jul-27 12:29N 41°32' W 070°40'  
2015-Jul-25 04:31N 41°20' W 070°38'0 0.1
2015-Jul-25 03:13N 41°20' W 070°38'5 0.3
2015-Jul-24 12:16N 41°15' W 070°34'4 5.3
2015-Jul-24 11:33N 41°15' W 070°39'1 1.0
2015-Jul-24 10:33N 41°15' W 070°40'2 2.1
2015-Jul-24 09:33N 41°14' W 070°43'4 4.1
2015-Jul-24 08:33N 41°15' W 070°37'1 0.9
2015-Jul-24 07:33N 41°15' W 070°38'2 1.9
2015-Jul-24 06:33N 41°14' W 070°41'5 4.5
2015-Jul-24 05:33N 41°15' W 070°35'5 4.6
2015-Jul-24 04:33N 41°14' W 070°41'4 3.7
2015-Jul-24 03:33N 41°15' W 070°36'3 2.7
2015-Jul-24 02:33N 41°14' W 070°40'3 2.6
2015-Jul-24 01:33N 41°15' W 070°36'2 2.5
2015-Jul-24 00:33N 41°14' W 070°39'5 4.9
2015-Jul-23 23:34N 41°15' W 070°33'5 5.5
2015-Jul-23 22:33N 41°14' W 070°40'1211.9
2015-Jul-23 21:33N 41°21' W 070°53'1110.7
2015-Jul-23 20:33N 41°28' W 070°42'3 3.3
2015-Jul-23 19:33N 41°32' W 070°40'0 0.0
2015-Jul-23 18:32N 41°32' W 070°40'0 0.0
2015-Jul-23 17:32N 41°32' W 070°40'5 1.3
2015-Jul-23 13:32N 41°27' W 070°44'6 5.1
2015-Jul-23 12:25N 41°22' W 070°47'0 0.0
2015-Jul-23 11:31N 41°22' W 070°47'0 0.0
2015-Jul-23 10:31N 41°22' W 070°47'0 0.0
2015-Jul-23 09:31N 41°22' W 070°47'0 0.0
2015-Jul-23 08:31N 41°22' W 070°47'0 0.0
2015-Jul-23 07:31N 41°22' W 070°47'0 0.0
2015-Jul-23 06:28N 41°22' W 070°47'0 0.0
2015-Jul-23 05:28N 41°22' W 070°47'0 0.0
2015-Jul-23 04:28N 41°22' W 070°47'0 0.0
2015-Jul-23 03:31N 41°22' W 070°47'0 0.0
2015-Jul-23 02:31N 41°22' W 070°47'0 0.0
2015-Jul-23 01:31N 41°22' W 070°47'0 0.0
2015-Jul-23 00:31N 41°22' W 070°47'2 1.7
2015-Jul-22 23:33N 41°23' W 070°49'6 6.3
2015-Jul-22 22:33N 41°17' W 070°47'5 4.6
2015-Jul-22 21:34N 41°13' W 070°43'7 7.1
2015-Jul-22 20:33N 41°15' W 070°33'7 6.6
2015-Jul-22 19:33N 41°13' W 070°42'5 5.4
2015-Jul-22 18:33N 41°14' W 070°35'7 7.0
2015-Jul-22 17:34N 41°13' W 070°44'5 5.1
2015-Jul-22 16:33N 41°13' W 070°51'7 6.5
2015-Jul-22 15:28N 41°12' W 070°41'7 7.9
2015-Jul-22 14:33N 41°05' W 070°38'6 6.0
2015-Jul-22 13:33N 41°11' W 070°38'2 1.9
2015-Jul-22 12:33N 41°13' W 070°38'2 1.9
2015-Jul-22 11:33N 41°12' W 070°35'3 2.6
2015-Jul-22 10:30N 41°10' W 070°35'3 3.3
2015-Jul-22 09:34N 41°11' W 070°39'2 2.2
2015-Jul-22 08:34N 41°10' W 070°41'3 2.6
2015-Jul-22 07:34N 41°08' W 070°38'2 2.1
2015-Jul-22 06:33N 41°08' W 070°41'3 3.1
2015-Jul-22 05:33N 41°11' W 070°39'1 1.3
2015-Jul-22 04:32N 41°12' W 070°37'3 3.1
2015-Jul-22 03:34N 41°09' W 070°35'5 4.9
2015-Jul-22 02:33N 41°14' W 070°35'3 2.8
2015-Jul-22 01:34N 41°13' W 070°39'0 0.1
2015-Jul-22 00:33N 41°13' W 070°39'1 0.5
2015-Jul-21 23:33N 41°13' W 070°39'3 2.5
2015-Jul-21 22:30N 41°13' W 070°43'7 7.3
2015-Jul-21 21:33N 41°14' W 070°34'6 6.1
2015-Jul-21 20:34N 41°13' W 070°42'5 5.2
2015-Jul-21 19:34N 41°14' W 070°35'4 4.2
2015-Jul-21 18:33N 41°13' W 070°40'5 5.4
2015-Jul-21 17:33N 41°15' W 070°33'5 5.2
2015-Jul-21 16:34N 41°19' W 070°36'9 9.1
2015-Jul-21 15:33N 41°17' W 070°48'6 6.4
2015-Jul-21 14:33N 41°23' W 070°51'3 3.2
2015-Jul-21 13:33N 41°22' W 070°47'0 0.0
2015-Jul-21 12:30N 41°22' W 070°47'0 0.0
2015-Jul-21 11:31N 41°22' W 070°47'0 0.0
2015-Jul-21 10:34N 41°22' W 070°47'0 0.0
2015-Jul-21 09:33N 41°22' W 070°47'0 0.0
2015-Jul-21 08:33N 41°22' W 070°47'0 0.0
2015-Jul-21 07:33N 41°22' W 070°47'0 0.0
2015-Jul-21 06:33N 41°22' W 070°47'0 0.0
2015-Jul-21 05:33N 41°22' W 070°47'0 0.0
2015-Jul-21 04:33N 41°22' W 070°47'0 0.0
2015-Jul-21 03:33N 41°22' W 070°47'0 0.0
2015-Jul-21 02:30N 41°22' W 070°47'0 0.0
2015-Jul-21 01:33N 41°22' W 070°47'0 0.0
2015-Jul-21 00:33N 41°22' W 070°47'0 0.0
2015-Jul-20 23:33N 41°22' W 070°47'0 0.0
2015-Jul-20 22:33N 41°22' W 070°47'0 0.0
2015-Jul-20 21:33N 41°22' W 070°47'  
Track history (hours):
 
Tides and Currents Weather Stations Pressure Air Temp Water Temp Dewpoint Dewpoint Depression Visibility Wind Speed Wind Dir Waves Ship Positions

Oceanographic research ship Hassler (USA)

Last reported at 2015-Jul-30 21:29 UTC. Time now 2015-Jul-31 05:05 UTC.
Position N 36°30' W 075°14'.

Length 37 m; draft 3.8 m.

Type: . MMSI: 369970091.

Date/timePositionNaut miles runAvg speedWind from/ knotsBaromVisibWave heightAir tempDewpointWater temp
2015-Jul-30 21:29N 36°30' W 075°14'2 0.1
2015-Jul-30 05:30N 36°28' W 075°13'2 0.6
2015-Jul-30 02:06N 36°26' W 075°13'52 2.3
2015-Jul-29 03:33N 37°14' W 074°49'1412.5
2015-Jul-29 02:27N 37°22' W 075°03'1211.6
2015-Jul-29 01:23N 37°28' W 075°17'0 0.4
2015-Jul-29 00:33N 37°28' W 075°17'1 1.4
2015-Jul-28 23:33N 37°29' W 075°16'10510.2
2015-Jul-28 13:13N 38°59' W 074°07'912.1
2015-Jul-28 12:28N 39°08' W 074°03'1511.9
2015-Jul-28 11:13N 39°21' W 073°55'811.9
2015-Jul-28 10:33N 39°29' W 073°51'1211.8
2015-Jul-28 09:33N 39°39' W 073°45'1211.8
2015-Jul-28 08:32N 39°47' W 073°33'1211.9
2015-Jul-28 07:33N 39°54' W 073°21'1211.7
2015-Jul-28 06:33N 40°02' W 073°09'1211.9
2015-Jul-28 05:33N 40°09' W 072°57'1211.6
2015-Jul-28 04:33N 40°16' W 072°45'1111.3
2015-Jul-28 03:33N 40°23' W 072°34'1211.7
2015-Jul-28 02:33N 40°31' W 072°22'1211.8
2015-Jul-28 01:33N 40°38' W 072°10'1211.7
2015-Jul-28 00:33N 40°45' W 071°57'1211.8
2015-Jul-27 23:33N 40°53' W 071°45'1211.7
2015-Jul-27 22:33N 40°59' W 071°32'1211.7
2015-Jul-27 21:33N 41°07' W 071°20'1211.7
2015-Jul-27 20:33N 41°14' W 071°08'1211.8
2015-Jul-27 19:33N 41°22' W 070°56'1211.8
2015-Jul-27 18:33N 41°28' W 070°43'4 3.8
2015-Jul-27 17:32N 41°32' W 070°40'0 0.0
2015-Jul-27 16:32N 41°32' W 070°40'0 0.0
2015-Jul-27 15:23N 41°32' W 070°40'0 0.0
2015-Jul-27 14:26N 41°32' W 070°40'0 0.0
2015-Jul-27 13:17N 41°32' W 070°40'0 0.0
2015-Jul-27 12:29N 41°32' W 070°40'  
2015-Jul-25 04:31N 41°20' W 070°38'0 0.1
2015-Jul-25 03:13N 41°20' W 070°38'5 0.3
2015-Jul-24 12:16N 41°15' W 070°34'4 5.3
2015-Jul-24 11:33N 41°15' W 070°39'1 1.0
2015-Jul-24 10:33N 41°15' W 070°40'2 2.1
2015-Jul-24 09:33N 41°14' W 070°43'4 4.1
2015-Jul-24 08:33N 41°15' W 070°37'1 0.9
2015-Jul-24 07:33N 41°15' W 070°38'2 1.9
2015-Jul-24 06:33N 41°14' W 070°41'5 4.5
2015-Jul-24 05:33N 41°15' W 070°35'5 4.6
2015-Jul-24 04:33N 41°14' W 070°41'4 3.7
2015-Jul-24 03:33N 41°15' W 070°36'3 2.7
2015-Jul-24 02:33N 41°14' W 070°40'3 2.6
2015-Jul-24 01:33N 41°15' W 070°36'2 2.5
2015-Jul-24 00:33N 41°14' W 070°39'5 4.9
2015-Jul-23 23:34N 41°15' W 070°33'5 5.5
2015-Jul-23 22:33N 41°14' W 070°40'1211.9
2015-Jul-23 21:33N 41°21' W 070°53'1110.7
2015-Jul-23 20:33N 41°28' W 070°42'3 3.3
2015-Jul-23 19:33N 41°32' W 070°40'0 0.0
2015-Jul-23 18:32N 41°32' W 070°40'0 0.0
2015-Jul-23 17:32N 41°32' W 070°40'5 1.3
2015-Jul-23 13:32N 41°27' W 070°44'6 5.1
2015-Jul-23 12:25N 41°22' W 070°47'0 0.0
2015-Jul-23 11:31N 41°22' W 070°47'0 0.0
2015-Jul-23 10:31N 41°22' W 070°47'0 0.0
2015-Jul-23 09:31N 41°22' W 070°47'0 0.0
2015-Jul-23 08:31N 41°22' W 070°47'0 0.0
2015-Jul-23 07:31N 41°22' W 070°47'0 0.0
2015-Jul-23 06:28N 41°22' W 070°47'0 0.0
2015-Jul-23 05:28N 41°22' W 070°47'0 0.0
2015-Jul-23 04:28N 41°22' W 070°47'0 0.0
2015-Jul-23 03:31N 41°22' W 070°47'0 0.0
2015-Jul-23 02:31N 41°22' W 070°47'0 0.0
2015-Jul-23 01:31N 41°22' W 070°47'0 0.0
2015-Jul-23 00:31N 41°22' W 070°47'2 1.7
2015-Jul-22 23:33N 41°23' W 070°49'6 6.3
2015-Jul-22 22:33N 41°17' W 070°47'5 4.6
2015-Jul-22 21:34N 41°13' W 070°43'7 7.1
2015-Jul-22 20:33N 41°15' W 070°33'7 6.6
2015-Jul-22 19:33N 41°13' W 070°42'5 5.4
2015-Jul-22 18:33N 41°14' W 070°35'7 7.0
2015-Jul-22 17:34N 41°13' W 070°44'5 5.1
2015-Jul-22 16:33N 41°13' W 070°51'7 6.5
2015-Jul-22 15:28N 41°12' W 070°41'7 7.9
2015-Jul-22 14:33N 41°05' W 070°38'6 6.0
2015-Jul-22 13:33N 41°11' W 070°38'2 1.9
2015-Jul-22 12:33N 41°13' W 070°38'2 1.9
2015-Jul-22 11:33N 41°12' W 070°35'3 2.6
2015-Jul-22 10:30N 41°10' W 070°35'3 3.3
2015-Jul-22 09:34N 41°11' W 070°39'2 2.2
2015-Jul-22 08:34N 41°10' W 070°41'3 2.6
2015-Jul-22 07:34N 41°08' W 070°38'2 2.1
2015-Jul-22 06:33N 41°08' W 070°41'3 3.1
2015-Jul-22 05:33N 41°11' W 070°39'1 1.3
2015-Jul-22 04:32N 41°12' W 070°37'3 3.1
2015-Jul-22 03:34N 41°09' W 070°35'5 4.9
2015-Jul-22 02:33N 41°14' W 070°35'3 2.8
2015-Jul-22 01:34N 41°13' W 070°39'0 0.1
2015-Jul-22 00:33N 41°13' W 070°39'1 0.5
2015-Jul-21 23:33N 41°13' W 070°39'3 2.5
2015-Jul-21 22:30N 41°13' W 070°43'7 7.3
2015-Jul-21 21:33N 41°14' W 070°34'6 6.1
2015-Jul-21 20:34N 41°13' W 070°42'5 5.2
2015-Jul-21 19:34N 41°14' W 070°35'4 4.2
2015-Jul-21 18:33N 41°13' W 070°40'5 5.4
2015-Jul-21 17:33N 41°15' W 070°33'5 5.2
2015-Jul-21 16:34N 41°19' W 070°36'9 9.1
2015-Jul-21 15:33N 41°17' W 070°48'6 6.4
2015-Jul-21 14:33N 41°23' W 070°51'3 3.2
2015-Jul-21 13:33N 41°22' W 070°47'0 0.0
2015-Jul-21 12:30N 41°22' W 070°47'0 0.0
2015-Jul-21 11:31N 41°22' W 070°47'0 0.0
2015-Jul-21 10:34N 41°22' W 070°47'0 0.0
2015-Jul-21 09:33N 41°22' W 070°47'0 0.0
2015-Jul-21 08:33N 41°22' W 070°47'0 0.0
2015-Jul-21 07:33N 41°22' W 070°47'0 0.0
2015-Jul-21 06:33N 41°22' W 070°47'0 0.0
2015-Jul-21 05:33N 41°22' W 070°47'0 0.0
2015-Jul-21 04:33N 41°22' W 070°47'0 0.0
2015-Jul-21 03:33N 41°22' W 070°47'0 0.0
2015-Jul-21 02:30N 41°22' W 070°47'0 0.0
2015-Jul-21 01:33N 41°22' W 070°47'0 0.0
2015-Jul-21 00:33N 41°22' W 070°47'0 0.0
2015-Jul-20 23:33N 41°22' W 070°47'0 0.0
2015-Jul-20 22:33N 41°22' W 070°47'0 0.0
2015-Jul-20 21:33N 41°22' W 070°47'  

Dump ship's entire track history